sensor_id;sensor_type;location;lat;lon;timestamp;pressure;altitude;pressure_sealevel;temperature;humidity
78317;BME280;67572;50.930;18.276;2023-08-06T00:03:02;97952.28;;;16.81;99.06
78317;BME280;67572;50.930;18.276;2023-08-06T00:06:07;97942.00;;;16.93;98.39
78317;BME280;67572;50.930;18.276;2023-08-06T00:09:11;97936.56;;;17.09;97.16
78317;BME280;67572;50.930;18.276;2023-08-06T00:12:15;97924.72;;;16.96;97.07
78317;BME280;67572;50.930;18.276;2023-08-06T00:15:19;97908.78;;;16.94;97.52
78317;BME280;67572;50.930;18.276;2023-08-06T00:18:24;97891.28;;;16.98;97.06
78317;BME280;67572;50.930;18.276;2023-08-06T00:21:27;97883.38;;;17.05;96.87
78317;BME280;67572;50.930;18.276;2023-08-06T00:24:31;97880.22;;;17.01;96.69
78317;BME280;67572;50.930;18.276;2023-08-06T00:27:34;97859.06;;;16.98;96.94
78317;BME280;67572;50.930;18.276;2023-08-06T00:30:38;97848.25;;;16.83;97.88
78317;BME280;67572;50.930;18.276;2023-08-06T00:33:43;97841.03;;;16.84;98.56
78317;BME280;67572;50.930;18.276;2023-08-06T00:36:46;97845.03;;;16.88;97.71
78317;BME280;67572;50.930;18.276;2023-08-06T00:39:51;97844.75;;;17.06;97.39
78317;BME280;67572;50.930;18.276;2023-08-06T00:42:54;97836.19;;;17.10;97.03
78317;BME280;67572;50.930;18.276;2023-08-06T00:45:58;97816.13;;;17.21;97.17
78317;BME280;67572;50.930;18.276;2023-08-06T00:49:04;97816.72;;;17.08;96.87
78317;BME280;67572;50.930;18.276;2023-08-06T00:52:08;97807.88;;;17.23;96.69
78317;BME280;67572;50.930;18.276;2023-08-06T00:55:12;97791.28;;;17.19;96.39
78317;BME280;67572;50.930;18.276;2023-08-06T00:58:16;97781.56;;;17.18;95.90
78317;BME280;67572;50.930;18.276;2023-08-06T01:01:20;97752.84;;;17.18;96.20
78317;BME280;67572;50.930;18.276;2023-08-06T01:04:25;97741.56;;;17.23;96.57
78317;BME280;67572;50.930;18.276;2023-08-06T01:07:40;97732.28;;;17.11;96.43
78317;BME280;67572;50.930;18.276;2023-08-06T01:10:54;97714.94;;;17.13;96.62
78317;BME280;67572;50.930;18.276;2023-08-06T01:14:13;97693.22;;;16.85;97.77
78317;BME280;67572;50.930;18.276;2023-08-06T01:17:20;97682.09;;;16.88;98.52
78317;BME280;67572;50.930;18.276;2023-08-06T01:20:29;97681.91;;;16.90;98.60
78317;BME280;67572;50.930;18.276;2023-08-06T01:23:32;97661.91;;;16.92;98.64
78317;BME280;67572;50.930;18.276;2023-08-06T01:26:41;97647.31;;;16.95;98.56
78317;BME280;67572;50.930;18.276;2023-08-06T01:29:51;97637.72;;;17.01;98.42
78317;BME280;67572;50.930;18.276;2023-08-06T01:32:59;97628.78;;;17.00;98.65
78317;BME280;67572;50.930;18.276;2023-08-06T01:36:06;97608.59;;;16.89;98.32
78317;BME280;67572;50.930;18.276;2023-08-06T01:39:09;97580.66;;;16.99;98.14
78317;BME280;67572;50.930;18.276;2023-08-06T01:42:13;97564.72;;;16.82;99.09
78317;BME280;67572;50.930;18.276;2023-08-06T01:45:16;97532.88;;;16.79;99.82
78317;BME280;67572;50.930;18.276;2023-08-06T01:48:20;97532.06;;;16.94;99.80
78317;BME280;67572;50.930;18.276;2023-08-06T01:51:25;97541.78;;;16.80;99.93
78317;BME280;67572;50.930;18.276;2023-08-06T01:54:29;97558.16;;;17.00;98.93
78317;BME280;67572;50.930;18.276;2023-08-06T01:57:32;97575.38;;;17.05;98.77
78317;BME280;67572;50.930;18.276;2023-08-06T02:00:36;97552.34;;;16.96;98.13
78317;BME280;67572;50.930;18.276;2023-08-06T02:03:39;97559.84;;;17.15;98.28
78317;BME280;67572;50.930;18.276;2023-08-06T02:06:46;97525.78;;;17.01;97.99
78317;BME280;67572;50.930;18.276;2023-08-06T02:09:49;97502.53;;;16.94;98.66
78317;BME280;67572;50.930;18.276;2023-08-06T02:12:54;97519.81;;;16.91;99.48
78317;BME280;67572;50.930;18.276;2023-08-06T02:15:57;97527.44;;;17.02;98.89
78317;BME280;67572;50.930;18.276;2023-08-06T02:19:01;97537.50;;;17.00;98.84
78317;BME280;67572;50.930;18.276;2023-08-06T02:22:06;97523.91;;;17.02;98.86
78317;BME280;67572;50.930;18.276;2023-08-06T02:25:10;97527.69;;;17.07;98.60
78317;BME280;67572;50.930;18.276;2023-08-06T02:28:13;97525.94;;;17.00;98.67
78317;BME280;67572;50.930;18.276;2023-08-06T02:31:17;97512.25;;;17.09;98.40
78317;BME280;67572;50.930;18.276;2023-08-06T02:34:21;97506.41;;;16.91;99.21
78317;BME280;67572;50.930;18.276;2023-08-06T02:37:26;97505.47;;;16.84;99.81
78317;BME280;67572;50.930;18.276;2023-08-06T02:40:29;97506.78;;;16.88;100.00
78317;BME280;67572;50.930;18.276;2023-08-06T02:43:33;97509.00;;;16.84;99.84
78317;BME280;67572;50.930;18.276;2023-08-06T02:46:36;97519.72;;;16.84;99.60
78317;BME280;67572;50.930;18.276;2023-08-06T02:49:40;97531.97;;;17.02;99.38
78317;BME280;67572;50.930;18.276;2023-08-06T02:52:44;97549.00;;;17.09;98.67
78317;BME280;67572;50.930;18.276;2023-08-06T02:55:48;97559.75;;;17.24;97.67
78317;BME280;67572;50.930;18.276;2023-08-06T02:58:57;97555.94;;;17.18;97.22
78317;BME280;67572;50.930;18.276;2023-08-06T03:02:21;97565.28;;;17.22;96.69
78317;BME280;67572;50.930;18.276;2023-08-06T03:05:51;97543.81;;;17.07;96.96
78317;BME280;67572;50.930;18.276;2023-08-06T03:09:06;97542.03;;;17.00;98.00
78317;BME280;67572;50.930;18.276;2023-08-06T03:12:09;97543.44;;;17.10;97.80
78317;BME280;67572;50.930;18.276;2023-08-06T03:15:14;97532.06;;;17.23;97.52
78317;BME280;67572;50.930;18.276;2023-08-06T03:18:19;97538.19;;;17.17;97.06
78317;BME280;67572;50.930;18.276;2023-08-06T03:21:24;97544.56;;;17.31;96.61
78317;BME280;67572;50.930;18.276;2023-08-06T03:24:29;97545.84;;;17.35;95.92
78317;BME280;67572;50.930;18.276;2023-08-06T03:27:34;97545.28;;;17.39;95.51
78317;BME280;67572;50.930;18.276;2023-08-06T03:30:38;97532.78;;;17.32;95.54
78317;BME280;67572;50.930;18.276;2023-08-06T03:33:44;97518.88;;;17.28;95.63
78317;BME280;67572;50.930;18.276;2023-08-06T03:36:57;97519.63;;;17.22;95.96
78317;BME280;67572;50.930;18.276;2023-08-06T03:40:03;97520.84;;;17.19;96.29
78317;BME280;67572;50.930;18.276;2023-08-06T03:43:08;97515.47;;;17.19;96.23
78317;BME280;67572;50.930;18.276;2023-08-06T03:46:12;97508.72;;;17.09;96.38
78317;BME280;67572;50.930;18.276;2023-08-06T03:49:16;97507.06;;;17.08;96.78
78317;BME280;67572;50.930;18.276;2023-08-06T03:52:21;97499.66;;;17.10;96.79
78317;BME280;67572;50.930;18.276;2023-08-06T03:55:26;97488.34;;;17.00;97.19
78317;BME280;67572;50.930;18.276;2023-08-06T03:58:29;97479.75;;;16.89;97.77
78317;BME280;67572;50.930;18.276;2023-08-06T04:01:33;97483.06;;;16.91;98.01
78317;BME280;67572;50.930;18.276;2023-08-06T04:04:37;97481.06;;;16.94;98.26
78317;BME280;67572;50.930;18.276;2023-08-06T04:07:40;97488.44;;;16.91;98.10
78317;BME280;67572;50.930;18.276;2023-08-06T04:10:49;97485.59;;;16.78;98.30
78317;BME280;67572;50.930;18.276;2023-08-06T04:13:52;97477.44;;;16.86;99.05
78317;BME280;67572;50.930;18.276;2023-08-06T04:16:59;97479.56;;;16.76;98.88
78317;BME280;67572;50.930;18.276;2023-08-06T04:20:02;97480.22;;;16.78;99.08
78317;BME280;67572;50.930;18.276;2023-08-06T04:23:07;97475.84;;;16.62;99.31
78317;BME280;67572;50.930;18.276;2023-08-06T04:26:12;97473.22;;;16.54;100.00
78317;BME280;67572;50.930;18.276;2023-08-06T04:29:16;97464.16;;;16.41;100.00
78317;BME280;67572;50.930;18.276;2023-08-06T04:32:20;97469.44;;;16.49;100.00
78317;BME280;67572;50.930;18.276;2023-08-06T04:35:27;97468.66;;;16.55;100.00
78317;BME280;67572;50.930;18.276;2023-08-06T04:38:31;97461.84;;;16.52;100.00
78317;BME280;67572;50.930;18.276;2023-08-06T04:41:36;97463.22;;;16.48;100.00
78317;BME280;67572;50.930;18.276;2023-08-06T04:44:40;97459.63;;;16.56;100.00
78317;BME280;67572;50.930;18.276;2023-08-06T04:47:44;97465.34;;;16.53;100.00
78317;BME280;67572;50.930;18.276;2023-08-06T04:50:50;97453.88;;;16.44;100.00
78317;BME280;67572;50.930;18.276;2023-08-06T04:53:53;97446.47;;;16.46;100.00
78317;BME280;67572;50.930;18.276;2023-08-06T04:56:58;97447.69;;;16.44;100.00
78317;BME280;67572;50.930;18.276;2023-08-06T05:00:02;97450.56;;;16.57;100.00
78317;BME280;67572;50.930;18.276;2023-08-06T05:03:06;97446.56;;;16.53;99.89
78317;BME280;67572;50.930;18.276;2023-08-06T05:06:10;97440.28;;;16.60;99.87
78317;BME280;67572;50.930;18.276;2023-08-06T05:09:13;97437.38;;;16.70;99.83
78317;BME280;67572;50.930;18.276;2023-08-06T05:12:18;97427.91;;;16.74;99.15
78317;BME280;67572;50.930;18.276;2023-08-06T05:15:22;97418.63;;;16.62;99.53
78317;BME280;67572;50.930;18.276;2023-08-06T05:18:27;97416.78;;;16.48;99.80
78317;BME280;67572;50.930;18.276;2023-08-06T05:21:32;97417.53;;;16.56;99.77
78317;BME280;67572;50.930;18.276;2023-08-06T05:24:36;97416.31;;;16.59;99.52
78317;BME280;67572;50.930;18.276;2023-08-06T05:27:41;97431.03;;;16.63;99.13
78317;BME280;67572;50.930;18.276;2023-08-06T05:30:44;97425.41;;;16.58;99.15
78317;BME280;67572;50.930;18.276;2023-08-06T05:33:48;97423.44;;;16.67;98.72
78317;BME280;67572;50.930;18.276;2023-08-06T05:36:51;97431.22;;;16.61;98.62
78317;BME280;67572;50.930;18.276;2023-08-06T05:39:55;97427.28;;;16.72;98.52
78317;BME280;67572;50.930;18.276;2023-08-06T05:43:00;97420.84;;;16.58;98.78
78317;BME280;67572;50.930;18.276;2023-08-06T05:46:04;97406.91;;;16.48;99.44
78317;BME280;67572;50.930;18.276;2023-08-06T05:49:07;97400.59;;;16.56;99.76
78317;BME280;67572;50.930;18.276;2023-08-06T05:52:11;97392.81;;;16.46;100.00
78317;BME280;67572;50.930;18.276;2023-08-06T05:55:14;97393.63;;;16.47;100.00
78317;BME280;67572;50.930;18.276;2023-08-06T05:58:19;97389.69;;;16.57;99.66
78317;BME280;67572;50.930;18.276;2023-08-06T06:01:23;97394.75;;;16.52;100.00
78317;BME280;67572;50.930;18.276;2023-08-06T06:04:27;97388.66;;;16.44;100.00
78317;BME280;67572;50.930;18.276;2023-08-06T06:07:31;97379.78;;;16.28;100.00
78317;BME280;67572;50.930;18.276;2023-08-06T06:10:35;97381.91;;;16.18;100.00
78317;BME280;67572;50.930;18.276;2023-08-06T06:13:40;97381.44;;;16.29;100.00
78317;BME280;67572;50.930;18.276;2023-08-06T06:16:43;97383.19;;;16.22;100.00
78317;BME280;67572;50.930;18.276;2023-08-06T06:19:47;97395.78;;;16.36;100.00
78317;BME280;67572;50.930;18.276;2023-08-06T06:22:50;97384.75;;;16.31;100.00
78317;BME280;67572;50.930;18.276;2023-08-06T06:25:54;97385.38;;;16.04;100.00
78317;BME280;67572;50.930;18.276;2023-08-06T06:28:59;97385.38;;;16.04;100.00
78317;BME280;67572;50.930;18.276;2023-08-06T06:32:03;97364.03;;;15.96;100.00
78317;BME280;67572;50.930;18.276;2023-08-06T06:35:07;97373.31;;;15.85;100.00
78317;BME280;67572;50.930;18.276;2023-08-06T06:38:11;97373.78;;;15.74;100.00
78317;BME280;67572;50.930;18.276;2023-08-06T06:41:14;97359.66;;;15.80;100.00
78317;BME280;67572;50.930;18.276;2023-08-06T06:44:19;97365.47;;;15.84;100.00
78317;BME280;67572;50.930;18.276;2023-08-06T06:47:23;97362.22;;;15.73;100.00
78317;BME280;67572;50.930;18.276;2023-08-06T06:50:26;97361.09;;;15.68;100.00
78317;BME280;67572;50.930;18.276;2023-08-06T06:53:30;97364.47;;;15.62;100.00
78317;BME280;67572;50.930;18.276;2023-08-06T06:56:33;97338.94;;;15.51;100.00
78317;BME280;67572;50.930;18.276;2023-08-06T06:59:38;97334.22;;;15.53;100.00
78317;BME280;67572;50.930;18.276;2023-08-06T07:02:42;97338.75;;;15.52;100.00
78317;BME280;67572;50.930;18.276;2023-08-06T07:05:45;97333.28;;;15.46;100.00
78317;BME280;67572;50.930;18.276;2023-08-06T07:08:49;97338.63;;;15.46;100.00
78317;BME280;67572;50.930;18.276;2023-08-06T07:11:53;97337.44;;;15.48;100.00
78317;BME280;67572;50.930;18.276;2023-08-06T07:14:58;97340.78;;;15.27;100.00
78317;BME280;67572;50.930;18.276;2023-08-06T07:18:02;97346.84;;;15.21;100.00
78317;BME280;67572;50.930;18.276;2023-08-06T07:21:05;97338.44;;;15.02;100.00
78317;BME280;67572;50.930;18.276;2023-08-06T07:24:09;97335.34;;;14.90;100.00
78317;BME280;67572;50.930;18.276;2023-08-06T07:27:13;97341.34;;;14.92;100.00
78317;BME280;67572;50.930;18.276;2023-08-06T07:30:18;97332.19;;;14.86;100.00
78317;BME280;67572;50.930;18.276;2023-08-06T07:33:21;97330.94;;;14.74;100.00
78317;BME280;67572;50.930;18.276;2023-08-06T07:36:25;97332.78;;;14.65;100.00
78317;BME280;67572;50.930;18.276;2023-08-06T07:39:29;97321.63;;;14.62;100.00
78317;BME280;67572;50.930;18.276;2023-08-06T07:42:32;97314.06;;;14.65;100.00
78317;BME280;67572;50.930;18.276;2023-08-06T07:45:37;97306.22;;;14.64;100.00
78317;BME280;67572;50.930;18.276;2023-08-06T07:48:41;97300.56;;;14.59;100.00
78317;BME280;67572;50.930;18.276;2023-08-06T07:51:44;97307.91;;;14.57;100.00
78317;BME280;67572;50.930;18.276;2023-08-06T07:54:48;97302.91;;;14.62;100.00
78317;BME280;67572;50.930;18.276;2023-08-06T07:57:52;97304.47;;;14.48;100.00
78317;BME280;67572;50.930;18.276;2023-08-06T08:00:57;97296.94;;;14.43;100.00
78317;BME280;67572;50.930;18.276;2023-08-06T08:04:04;97283.59;;;14.35;100.00
78317;BME280;67572;50.930;18.276;2023-08-06T08:07:09;97277.25;;;14.36;100.00
78317;BME280;67572;50.930;18.276;2023-08-06T08:10:14;97251.72;;;14.26;100.00
78317;BME280;67572;50.930;18.276;2023-08-06T08:13:17;97257.06;;;14.26;100.00
78317;BME280;67572;50.930;18.276;2023-08-06T08:16:22;97252.59;;;14.18;100.00
78317;BME280;67572;50.930;18.276;2023-08-06T08:19:26;97256.13;;;14.10;100.00
78317;BME280;67572;50.930;18.276;2023-08-06T08:22:30;97269.16;;;14.13;100.00
78317;BME280;67572;50.930;18.276;2023-08-06T08:25:34;97277.50;;;14.10;100.00
78317;BME280;67572;50.930;18.276;2023-08-06T08:28:37;97268.84;;;14.08;100.00
78317;BME280;67572;50.930;18.276;2023-08-06T08:31:42;97283.22;;;14.07;100.00
78317;BME280;67572;50.930;18.276;2023-08-06T08:34:46;97291.91;;;14.01;100.00
78317;BME280;67572;50.930;18.276;2023-08-06T08:37:51;97288.75;;;13.98;100.00
78317;BME280;67572;50.930;18.276;2023-08-06T08:40:54;97270.91;;;13.90;100.00
78317;BME280;67572;50.930;18.276;2023-08-06T08:43:59;97254.53;;;13.93;100.00
78317;BME280;67572;50.930;18.276;2023-08-06T08:47:04;97245.19;;;13.89;100.00
78317;BME280;67572;50.930;18.276;2023-08-06T08:50:11;97247.53;;;13.92;100.00
78317;BME280;67572;50.930;18.276;2023-08-06T08:53:16;97256.38;;;13.93;100.00
78317;BME280;67572;50.930;18.276;2023-08-06T08:56:20;97288.94;;;13.88;100.00
78317;BME280;67572;50.930;18.276;2023-08-06T08:59:23;97312.97;;;13.96;100.00
78317;BME280;67572;50.930;18.276;2023-08-06T09:02:29;97338.00;;;14.03;100.00
78317;BME280;67572;50.930;18.276;2023-08-06T09:05:34;97337.69;;;13.98;100.00
78317;BME280;67572;50.930;18.276;2023-08-06T09:08:43;97353.56;;;13.92;100.00
78317;BME280;67572;50.930;18.276;2023-08-06T09:11:51;97343.72;;;13.92;100.00
78317;BME280;67572;50.930;18.276;2023-08-06T09:14:55;97371.25;;;13.93;100.00
78317;BME280;67572;50.930;18.276;2023-08-06T09:18:00;97378.75;;;13.89;100.00
78317;BME280;67572;50.930;18.276;2023-08-06T09:21:14;97387.28;;;13.93;100.00
78317;BME280;67572;50.930;18.276;2023-08-06T09:24:18;97372.41;;;13.90;100.00
78317;BME280;67572;50.930;18.276;2023-08-06T09:27:22;97348.72;;;13.95;100.00
78317;BME280;67572;50.930;18.276;2023-08-06T09:30:30;97331.50;;;13.98;100.00
78317;BME280;67572;50.930;18.276;2023-08-06T09:33:37;97321.66;;;13.98;100.00
78317;BME280;67572;50.930;18.276;2023-08-06T09:36:41;97310.28;;;13.96;100.00
78317;BME280;67572;50.930;18.276;2023-08-06T09:39:45;97313.13;;;13.95;100.00
78317;BME280;67572;50.930;18.276;2023-08-06T09:42:48;97306.28;;;14.00;100.00
78317;BME280;67572;50.930;18.276;2023-08-06T09:45:55;97301.25;;;14.05;100.00
78317;BME280;67572;50.930;18.276;2023-08-06T09:49:00;97273.97;;;14.18;100.00
78317;BME280;67572;50.930;18.276;2023-08-06T09:52:05;97271.97;;;14.20;100.00
78317;BME280;67572;50.930;18.276;2023-08-06T09:55:10;97285.00;;;14.23;100.00
78317;BME280;67572;50.930;18.276;2023-08-06T09:58:15;97290.53;;;14.22;100.00
78317;BME280;67572;50.930;18.276;2023-08-06T10:01:20;97303.72;;;14.23;100.00
78317;BME280;67572;50.930;18.276;2023-08-06T10:04:26;97303.34;;;14.26;100.00
78317;BME280;67572;50.930;18.276;2023-08-06T10:07:43;97300.53;;;14.20;100.00
78317;BME280;67572;50.930;18.276;2023-08-06T10:10:47;97295.66;;;14.31;100.00
78317;BME280;67572;50.930;18.276;2023-08-06T10:13:55;97295.66;;;14.31;100.00
78317;BME280;67572;50.930;18.276;2023-08-06T10:17:00;97288.13;;;14.27;100.00
78317;BME280;67572;50.930;18.276;2023-08-06T10:20:08;97282.44;;;14.38;100.00
78317;BME280;67572;50.930;18.276;2023-08-06T10:23:12;97262.91;;;14.29;100.00
78317;BME280;67572;50.930;18.276;2023-08-06T10:26:16;97251.34;;;14.37;100.00
78317;BME280;67572;50.930;18.276;2023-08-06T10:29:35;97258.69;;;14.35;100.00
78317;BME280;67572;50.930;18.276;2023-08-06T10:32:50;97258.03;;;14.33;100.00
78317;BME280;67572;50.930;18.276;2023-08-06T10:36:01;97270.22;;;14.43;100.00
78317;BME280;67572;50.930;18.276;2023-08-06T10:39:13;97279.78;;;14.30;100.00
78317;BME280;67572;50.930;18.276;2023-08-06T10:42:32;97274.78;;;14.27;100.00
78317;BME280;67572;50.930;18.276;2023-08-06T10:45:37;97264.88;;;14.35;100.00
78317;BME280;67572;50.930;18.276;2023-08-06T10:48:45;97269.75;;;14.32;100.00
78317;BME280;67572;50.930;18.276;2023-08-06T10:51:50;97268.41;;;14.28;100.00
78317;BME280;67572;50.930;18.276;2023-08-06T10:54:55;97270.25;;;14.27;100.00
78317;BME280;67572;50.930;18.276;2023-08-06T10:57:58;97265.59;;;14.29;100.00
78317;BME280;67572;50.930;18.276;2023-08-06T11:01:02;97284.75;;;14.41;100.00
78317;BME280;67572;50.930;18.276;2023-08-06T11:04:05;97282.06;;;14.41;100.00
78317;BME280;67572;50.930;18.276;2023-08-06T11:07:10;97280.72;;;14.45;100.00
78317;BME280;67572;50.930;18.276;2023-08-06T11:10:15;97277.53;;;14.41;100.00
78317;BME280;67572;50.930;18.276;2023-08-06T11:13:20;97281.88;;;14.42;100.00
78317;BME280;67572;50.930;18.276;2023-08-06T11:16:24;97297.09;;;14.42;100.00
78317;BME280;67572;50.930;18.276;2023-08-06T11:19:27;97305.44;;;14.55;100.00
78317;BME280;67572;50.930;18.276;2023-08-06T11:22:33;97305.28;;;14.49;100.00
78317;BME280;67572;50.930;18.276;2023-08-06T11:25:44;97292.41;;;14.52;100.00
78317;BME280;67572;50.930;18.276;2023-08-06T11:28:48;97295.25;;;14.51;100.00
78317;BME280;67572;50.930;18.276;2023-08-06T11:31:52;97288.09;;;14.51;100.00
78317;BME280;67572;50.930;18.276;2023-08-06T11:34:56;97293.94;;;14.47;100.00
78317;BME280;67572;50.930;18.276;2023-08-06T11:38:02;97300.44;;;14.44;100.00
78317;BME280;67572;50.930;18.276;2023-08-06T11:41:06;97311.00;;;14.46;100.00
78317;BME280;67572;50.930;18.276;2023-08-06T11:44:11;97308.63;;;14.42;100.00
78317;BME280;67572;50.930;18.276;2023-08-06T11:47:18;97316.81;;;14.49;100.00
78317;BME280;67572;50.930;18.276;2023-08-06T11:50:23;97304.78;;;14.45;100.00
78317;BME280;67572;50.930;18.276;2023-08-06T11:53:28;97291.59;;;14.43;100.00
78317;BME280;67572;50.930;18.276;2023-08-06T11:56:32;97293.75;;;14.48;100.00
78317;BME280;67572;50.930;18.276;2023-08-06T11:59:37;97303.13;;;14.52;100.00
78317;BME280;67572;50.930;18.276;2023-08-06T12:02:43;97312.81;;;14.45;100.00
78317;BME280;67572;50.930;18.276;2023-08-06T12:05:47;97313.81;;;14.44;100.00
78317;BME280;67572;50.930;18.276;2023-08-06T12:08:52;97314.66;;;14.53;100.00
78317;BME280;67572;50.930;18.276;2023-08-06T12:11:55;97317.13;;;14.54;100.00
78317;BME280;67572;50.930;18.276;2023-08-06T12:14:59;97314.25;;;14.64;100.00
78317;BME280;67572;50.930;18.276;2023-08-06T12:18:03;97309.28;;;14.53;100.00
78317;BME280;67572;50.930;18.276;2023-08-06T12:21:06;97296.22;;;14.58;100.00
78317;BME280;67572;50.930;18.276;2023-08-06T12:24:11;97293.13;;;14.46;100.00
78317;BME280;67572;50.930;18.276;2023-08-06T12:27:15;97296.75;;;14.53;100.00
78317;BME280;67572;50.930;18.276;2023-08-06T12:30:18;97296.75;;;14.53;100.00
78317;BME280;67572;50.930;18.276;2023-08-06T12:33:22;97301.88;;;14.63;100.00
78317;BME280;67572;50.930;18.276;2023-08-06T12:36:25;97308.16;;;14.78;100.00
78317;BME280;67572;50.930;18.276;2023-08-06T12:39:30;97310.50;;;14.73;100.00
78317;BME280;67572;50.930;18.276;2023-08-06T12:42:34;97317.69;;;14.73;100.00
78317;BME280;67572;50.930;18.276;2023-08-06T12:45:38;97319.22;;;14.75;100.00
78317;BME280;67572;50.930;18.276;2023-08-06T12:48:41;97329.28;;;14.65;100.00
78317;BME280;67572;50.930;18.276;2023-08-06T12:51:45;97326.00;;;14.55;100.00
78317;BME280;67572;50.930;18.276;2023-08-06T12:54:50;97332.81;;;14.57;100.00
78317;BME280;67572;50.930;18.276;2023-08-06T12:57:53;97338.03;;;14.59;100.00
78317;BME280;67572;50.930;18.276;2023-08-06T13:00:59;97341.97;;;14.71;100.00
78317;BME280;67572;50.930;18.276;2023-08-06T13:04:03;97350.34;;;14.68;100.00
78317;BME280;67572;50.930;18.276;2023-08-06T13:07:22;97345.69;;;14.62;100.00
78317;BME280;67572;50.930;18.276;2023-08-06T13:10:27;97363.19;;;14.73;100.00
78317;BME280;67572;50.930;18.276;2023-08-06T13:13:31;97371.38;;;14.71;100.00
78317;BME280;67572;50.930;18.276;2023-08-06T13:16:35;97372.72;;;14.75;100.00
78317;BME280;67572;50.930;18.276;2023-08-06T13:19:38;97383.09;;;14.70;100.00
78317;BME280;67572;50.930;18.276;2023-08-06T13:22:42;97392.28;;;14.76;100.00
78317;BME280;67572;50.930;18.276;2023-08-06T13:25:49;97395.13;;;14.74;100.00
78317;BME280;67572;50.930;18.276;2023-08-06T13:28:53;97401.50;;;14.65;100.00
78317;BME280;67572;50.930;18.276;2023-08-06T13:31:56;97394.31;;;14.65;100.00
78317;BME280;67572;50.930;18.276;2023-08-06T13:35:00;97401.31;;;14.75;100.00
78317;BME280;67572;50.930;18.276;2023-08-06T13:38:04;97402.97;;;14.76;100.00
78317;BME280;67572;50.930;18.276;2023-08-06T13:41:09;97407.47;;;14.83;100.00
78317;BME280;67572;50.930;18.276;2023-08-06T13:44:12;97404.59;;;14.85;100.00
78317;BME280;67572;50.930;18.276;2023-08-06T13:47:17;97403.41;;;14.87;100.00
78317;BME280;67572;50.930;18.276;2023-08-06T13:50:20;97399.88;;;14.95;100.00
78317;BME280;67572;50.930;18.276;2023-08-06T13:53:24;97398.84;;;14.96;100.00
78317;BME280;67572;50.930;18.276;2023-08-06T13:56:34;97400.59;;;14.89;100.00
78317;BME280;67572;50.930;18.276;2023-08-06T13:59:40;97411.09;;;14.90;100.00
78317;BME280;67572;50.930;18.276;2023-08-06T14:02:45;97401.75;;;14.86;100.00
78317;BME280;67572;50.930;18.276;2023-08-06T14:05:49;97389.78;;;14.74;100.00
78317;BME280;67572;50.930;18.276;2023-08-06T14:08:53;97386.78;;;14.69;100.00
78317;BME280;67572;50.930;18.276;2023-08-06T14:11:59;97375.56;;;14.74;100.00
78317;BME280;67572;50.930;18.276;2023-08-06T14:15:03;97381.53;;;14.84;100.00
78317;BME280;67572;50.930;18.276;2023-08-06T14:18:07;97375.81;;;14.87;100.00
78317;BME280;67572;50.930;18.276;2023-08-06T14:21:11;97379.97;;;14.97;100.00
78317;BME280;67572;50.930;18.276;2023-08-06T14:24:14;97381.81;;;14.97;100.00
78317;BME280;67572;50.930;18.276;2023-08-06T14:27:19;97376.50;;;14.89;100.00
78317;BME280;67572;50.930;18.276;2023-08-06T14:30:23;97381.91;;;15.04;100.00
78317;BME280;67572;50.930;18.276;2023-08-06T14:33:26;97386.81;;;15.00;100.00
78317;BME280;67572;50.930;18.276;2023-08-06T14:36:30;97398.69;;;14.97;100.00
78317;BME280;67572;50.930;18.276;2023-08-06T14:39:33;97417.59;;;14.96;100.00
78317;BME280;67572;50.930;18.276;2023-08-06T14:42:38;97424.97;;;14.94;100.00
78317;BME280;67572;50.930;18.276;2023-08-06T14:45:42;97428.78;;;14.99;100.00
78317;BME280;67572;50.930;18.276;2023-08-06T14:48:45;97442.53;;;14.96;100.00
78317;BME280;67572;50.930;18.276;2023-08-06T14:51:50;97445.38;;;14.87;100.00
78317;BME280;67572;50.930;18.276;2023-08-06T14:54:53;97448.03;;;14.95;100.00
78317;BME280;67572;50.930;18.276;2023-08-06T14:58:01;97453.25;;;14.88;100.00
78317;BME280;67572;50.930;18.276;2023-08-06T15:01:04;97460.41;;;14.96;100.00
78317;BME280;67572;50.930;18.276;2023-08-06T15:04:08;97460.28;;;14.89;100.00
78317;BME280;67572;50.930;18.276;2023-08-06T15:07:11;97452.72;;;14.93;100.00
78317;BME280;67572;50.930;18.276;2023-08-06T15:10:15;97457.13;;;14.78;99.98
78317;BME280;67572;50.930;18.276;2023-08-06T15:13:22;97452.28;;;14.81;100.00
78317;BME280;67572;50.930;18.276;2023-08-06T15:16:26;97462.81;;;14.83;100.00
78317;BME280;67572;50.930;18.276;2023-08-06T15:19:29;97462.88;;;14.66;100.00
78317;BME280;67572;50.930;18.276;2023-08-06T15:26:25;97490.78;;;14.64;100.00
78317;BME280;67572;50.930;18.276;2023-08-06T15:29:28;97490.47;;;14.59;100.00
78317;BME280;67572;50.930;18.276;2023-08-06T15:32:32;97481.44;;;14.60;100.00
78317;BME280;67572;50.930;18.276;2023-08-06T15:35:36;97496.50;;;14.53;100.00
78317;BME280;67572;50.930;18.276;2023-08-06T15:38:39;97487.28;;;14.63;100.00
78317;BME280;67572;50.930;18.276;2023-08-06T15:41:44;97484.97;;;14.52;100.00
78317;BME280;67572;50.930;18.276;2023-08-06T15:48:20;97481.28;;;14.45;100.00
78317;BME280;67572;50.930;18.276;2023-08-06T15:51:24;97482.44;;;14.42;100.00
78317;BME280;67572;50.930;18.276;2023-08-06T15:54:27;97488.97;;;14.48;100.00
78317;BME280;67572;50.930;18.276;2023-08-06T15:57:31;97495.81;;;14.42;100.00
78317;BME280;67572;50.930;18.276;2023-08-06T16:00:34;97498.47;;;14.34;100.00
78317;BME280;67572;50.930;18.276;2023-08-06T16:04:55;97501.00;;;14.36;100.00
78317;BME280;67572;50.930;18.276;2023-08-06T16:07:59;97506.03;;;14.31;100.00